sensor_id;sensor_type;location;lat;lon;timestamp;P1;durP1;ratioP1;P2;durP2;ratioP2
31764;SDS011;18338;53.240;8.798;2023-08-08T00:00:27;3.58;;;1.67;;
31764;SDS011;18338;53.240;8.798;2023-08-08T00:02:54;3.67;;;1.33;;
31764;SDS011;18338;53.240;8.798;2023-08-08T00:05:21;2.97;;;1.95;;
31764;SDS011;18338;53.240;8.798;2023-08-08T00:07:48;4.63;;;1.90;;
31764;SDS011;18338;53.240;8.798;2023-08-08T00:10:15;5.43;;;2.05;;
31764;SDS011;18338;53.240;8.798;2023-08-08T00:12:42;3.05;;;1.90;;
31764;SDS011;18338;53.240;8.798;2023-08-08T00:15:08;4.13;;;1.92;;
31764;SDS011;18338;53.240;8.798;2023-08-08T00:17:35;4.40;;;2.42;;
31764;SDS011;18338;53.240;8.798;2023-08-08T00:20:02;3.22;;;2.00;;
31764;SDS011;18338;53.240;8.798;2023-08-08T00:22:30;4.65;;;1.95;;
31764;SDS011;18338;53.240;8.798;2023-08-08T00:24:57;3.38;;;1.98;;
31764;SDS011;18338;53.240;8.798;2023-08-08T00:27:24;3.22;;;2.10;;
31764;SDS011;18338;53.240;8.798;2023-08-08T00:29:51;4.13;;;2.05;;
31764;SDS011;18338;53.240;8.798;2023-08-08T00:32:19;3.28;;;1.75;;
31764;SDS011;18338;53.240;8.798;2023-08-08T00:34:46;4.03;;;1.60;;
31764;SDS011;18338;53.240;8.798;2023-08-08T00:37:12;5.07;;;1.90;;
31764;SDS011;18338;53.240;8.798;2023-08-08T00:39:39;5.18;;;2.08;;
31764;SDS011;18338;53.240;8.798;2023-08-08T00:42:08;4.05;;;2.10;;
31764;SDS011;18338;53.240;8.798;2023-08-08T00:44:35;4.18;;;1.80;;
31764;SDS011;18338;53.240;8.798;2023-08-08T00:47:03;2.42;;;1.67;;
31764;SDS011;18338;53.240;8.798;2023-08-08T00:49:30;2.63;;;1.88;;
31764;SDS011;18338;53.240;8.798;2023-08-08T00:51:57;3.90;;;2.00;;
31764;SDS011;18338;53.240;8.798;2023-08-08T00:54:24;4.90;;;1.80;;
31764;SDS011;18338;53.240;8.798;2023-08-08T00:56:51;4.72;;;1.80;;
31764;SDS011;18338;53.240;8.798;2023-08-08T00:59:18;3.38;;;1.80;;
31764;SDS011;18338;53.240;8.798;2023-08-08T01:01:45;3.08;;;2.33;;
31764;SDS011;18338;53.240;8.798;2023-08-08T01:04:12;3.42;;;1.92;;
31764;SDS011;18338;53.240;8.798;2023-08-08T01:06:46;6.38;;;2.10;;
31764;SDS011;18338;53.240;8.798;2023-08-08T01:09:39;4.07;;;1.88;;
31764;SDS011;18338;53.240;8.798;2023-08-08T01:12:12;4.43;;;2.08;;
31764;SDS011;18338;53.240;8.798;2023-08-08T01:14:42;5.10;;;2.45;;
31764;SDS011;18338;53.240;8.798;2023-08-08T01:17:10;3.63;;;2.13;;
31764;SDS011;18338;53.240;8.798;2023-08-08T01:19:38;4.65;;;2.25;;
31764;SDS011;18338;53.240;8.798;2023-08-08T01:22:06;5.32;;;2.30;;
31764;SDS011;18338;53.240;8.798;2023-08-08T01:24:40;5.03;;;2.20;;
31764;SDS011;18338;53.240;8.798;2023-08-08T01:27:07;3.05;;;2.42;;
31764;SDS011;18338;53.240;8.798;2023-08-08T01:29:34;3.55;;;2.10;;
31764;SDS011;18338;53.240;8.798;2023-08-08T01:32:01;3.92;;;2.28;;
31764;SDS011;18338;53.240;8.798;2023-08-08T01:34:28;4.07;;;2.40;;
31764;SDS011;18338;53.240;8.798;2023-08-08T01:39:43;2.20;;;1.95;;
31764;SDS011;18338;53.240;8.798;2023-08-08T01:42:12;2.55;;;1.85;;
31764;SDS011;18338;53.240;8.798;2023-08-08T01:44:41;4.55;;;2.00;;
31764;SDS011;18338;53.240;8.798;2023-08-08T01:47:08;4.95;;;2.08;;
31764;SDS011;18338;53.240;8.798;2023-08-08T01:49:35;2.33;;;1.63;;
31764;SDS011;18338;53.240;8.798;2023-08-08T01:52:02;3.92;;;1.83;;
31764;SDS011;18338;53.240;8.798;2023-08-08T01:54:29;2.70;;;1.80;;
31764;SDS011;18338;53.240;8.798;2023-08-08T01:56:55;5.72;;;2.40;;
31764;SDS011;18338;53.240;8.798;2023-08-08T01:59:22;3.25;;;2.40;;
31764;SDS011;18338;53.240;8.798;2023-08-08T02:01:49;3.97;;;2.30;;
31764;SDS011;18338;53.240;8.798;2023-08-08T02:04:16;2.88;;;2.20;;
31764;SDS011;18338;53.240;8.798;2023-08-08T02:06:43;4.50;;;2.67;;
31764;SDS011;18338;53.240;8.798;2023-08-08T02:09:09;3.67;;;2.33;;
31764;SDS011;18338;53.240;8.798;2023-08-08T02:11:36;3.45;;;2.25;;
31764;SDS011;18338;53.240;8.798;2023-08-08T02:14:03;4.28;;;2.72;;
31764;SDS011;18338;53.240;8.798;2023-08-08T02:16:29;5.38;;;2.85;;
31764;SDS011;18338;53.240;8.798;2023-08-08T02:18:56;5.68;;;3.20;;
31764;SDS011;18338;53.240;8.798;2023-08-08T02:21:23;3.88;;;2.90;;
31764;SDS011;18338;53.240;8.798;2023-08-08T02:23:50;6.07;;;3.30;;
31764;SDS011;18338;53.240;8.798;2023-08-08T02:26:16;4.65;;;3.40;;
31764;SDS011;18338;53.240;8.798;2023-08-08T02:28:43;4.07;;;2.85;;
31764;SDS011;18338;53.240;8.798;2023-08-08T02:31:10;5.57;;;3.00;;
31764;SDS011;18338;53.240;8.798;2023-08-08T02:33:37;5.03;;;2.97;;
31764;SDS011;18338;53.240;8.798;2023-08-08T02:36:03;5.90;;;2.95;;
31764;SDS011;18338;53.240;8.798;2023-08-08T02:38:30;2.97;;;2.50;;
31764;SDS011;18338;53.240;8.798;2023-08-08T02:40:57;4.28;;;2.83;;
31764;SDS011;18338;53.240;8.798;2023-08-08T02:43:24;6.75;;;3.25;;
31764;SDS011;18338;53.240;8.798;2023-08-08T02:45:50;4.13;;;3.10;;
31764;SDS011;18338;53.240;8.798;2023-08-08T02:48:17;4.25;;;3.10;;
31764;SDS011;18338;53.240;8.798;2023-08-08T02:50:44;6.18;;;3.40;;
31764;SDS011;18338;53.240;8.798;2023-08-08T02:53:10;4.60;;;3.15;;
31764;SDS011;18338;53.240;8.798;2023-08-08T02:55:37;6.65;;;4.35;;
31764;SDS011;18338;53.240;8.798;2023-08-08T02:58:04;5.72;;;3.58;;
31764;SDS011;18338;53.240;8.798;2023-08-08T03:00:31;4.72;;;3.13;;
31764;SDS011;18338;53.240;8.798;2023-08-08T03:02:57;3.88;;;3.20;;
31764;SDS011;18338;53.240;8.798;2023-08-08T03:05:24;6.00;;;3.63;;
31764;SDS011;18338;53.240;8.798;2023-08-08T03:07:51;5.95;;;3.42;;
31764;SDS011;18338;53.240;8.798;2023-08-08T03:10:18;4.47;;;3.30;;
31764;SDS011;18338;53.240;8.798;2023-08-08T03:12:44;5.90;;;3.72;;
31764;SDS011;18338;53.240;8.798;2023-08-08T03:15:11;6.20;;;3.72;;
31764;SDS011;18338;53.240;8.798;2023-08-08T03:17:38;4.72;;;3.97;;
31764;SDS011;18338;53.240;8.798;2023-08-08T03:20:06;4.40;;;4.00;;
31764;SDS011;18338;53.240;8.798;2023-08-08T03:22:33;6.57;;;3.80;;
31764;SDS011;18338;53.240;8.798;2023-08-08T03:25:00;4.53;;;3.97;;
31764;SDS011;18338;53.240;8.798;2023-08-08T03:27:26;5.47;;;4.18;;
31764;SDS011;18338;53.240;8.798;2023-08-08T03:29:53;5.75;;;4.40;;
31764;SDS011;18338;53.240;8.798;2023-08-08T03:32:20;6.50;;;4.00;;
31764;SDS011;18338;53.240;8.798;2023-08-08T03:34:46;5.05;;;4.22;;
31764;SDS011;18338;53.240;8.798;2023-08-08T03:37:13;7.57;;;4.22;;
31764;SDS011;18338;53.240;8.798;2023-08-08T03:39:40;7.18;;;4.10;;
31764;SDS011;18338;53.240;8.798;2023-08-08T03:42:07;5.72;;;4.32;;
31764;SDS011;18338;53.240;8.798;2023-08-08T03:44:34;9.98;;;5.18;;
31764;SDS011;18338;53.240;8.798;2023-08-08T03:47:01;6.78;;;4.60;;
31764;SDS011;18338;53.240;8.798;2023-08-08T03:49:44;9.13;;;5.82;;
31764;SDS011;18338;53.240;8.798;2023-08-08T03:52:10;7.05;;;5.35;;
31764;SDS011;18338;53.240;8.798;2023-08-08T03:54:38;6.65;;;5.70;;
31764;SDS011;18338;53.240;8.798;2023-08-08T03:57:05;7.78;;;6.10;;
31764;SDS011;18338;53.240;8.798;2023-08-08T03:59:32;9.35;;;5.78;;
31764;SDS011;18338;53.240;8.798;2023-08-08T04:01:59;9.75;;;6.15;;
31764;SDS011;18338;53.240;8.798;2023-08-08T04:04:26;7.28;;;6.13;;
31764;SDS011;18338;53.240;8.798;2023-08-08T04:06:53;8.50;;;6.15;;
31764;SDS011;18338;53.240;8.798;2023-08-08T04:09:20;7.57;;;6.47;;
31764;SDS011;18338;53.240;8.798;2023-08-08T04:11:47;7.38;;;6.55;;
31764;SDS011;18338;53.240;8.798;2023-08-08T04:14:13;8.52;;;6.90;;
31764;SDS011;18338;53.240;8.798;2023-08-08T04:16:40;8.07;;;6.85;;
31764;SDS011;18338;53.240;8.798;2023-08-08T04:19:07;7.13;;;6.47;;
31764;SDS011;18338;53.240;8.798;2023-08-08T04:21:34;7.85;;;6.80;;
31764;SDS011;18338;53.240;8.798;2023-08-08T04:24:01;9.40;;;7.68;;
31764;SDS011;18338;53.240;8.798;2023-08-08T04:26:31;10.48;;;7.70;;
31764;SDS011;18338;53.240;8.798;2023-08-08T04:28:58;9.70;;;8.45;;
31764;SDS011;18338;53.240;8.798;2023-08-08T04:31:24;10.10;;;8.45;;
31764;SDS011;18338;53.240;8.798;2023-08-08T04:33:52;10.98;;;8.63;;
31764;SDS011;18338;53.240;8.798;2023-08-08T04:36:26;10.15;;;7.65;;
31764;SDS011;18338;53.240;8.798;2023-08-08T04:38:53;10.75;;;8.45;;
31764;SDS011;18338;53.240;8.798;2023-08-08T04:41:20;12.75;;;8.35;;
31764;SDS011;18338;53.240;8.798;2023-08-08T04:43:47;13.57;;;8.68;;
31764;SDS011;18338;53.240;8.798;2023-08-08T04:46:13;9.00;;;7.50;;
31764;SDS011;18338;53.240;8.798;2023-08-08T04:48:40;10.38;;;7.70;;
31764;SDS011;18338;53.240;8.798;2023-08-08T04:51:07;8.68;;;7.78;;
31764;SDS011;18338;53.240;8.798;2023-08-08T04:53:35;9.82;;;8.07;;
31764;SDS011;18338;53.240;8.798;2023-08-08T04:56:01;10.18;;;8.25;;
31764;SDS011;18338;53.240;8.798;2023-08-08T04:58:28;9.27;;;7.75;;
31764;SDS011;18338;53.240;8.798;2023-08-08T05:00:55;12.40;;;8.20;;
31764;SDS011;18338;53.240;8.798;2023-08-08T05:03:22;11.98;;;8.10;;
31764;SDS011;18338;53.240;8.798;2023-08-08T05:05:49;11.23;;;6.90;;
31764;SDS011;18338;53.240;8.798;2023-08-08T05:08:16;8.75;;;7.20;;
31764;SDS011;18338;53.240;8.798;2023-08-08T05:10:43;8.75;;;7.20;;
31764;SDS011;18338;53.240;8.798;2023-08-08T05:13:09;8.85;;;7.30;;
31764;SDS011;18338;53.240;8.798;2023-08-08T05:15:37;8.75;;;7.10;;
31764;SDS011;18338;53.240;8.798;2023-08-08T05:18:04;10.10;;;7.20;;
31764;SDS011;18338;53.240;8.798;2023-08-08T05:20:31;10.98;;;6.93;;
31764;SDS011;18338;53.240;8.798;2023-08-08T05:22:57;10.70;;;6.65;;
31764;SDS011;18338;53.240;8.798;2023-08-08T05:25:24;7.78;;;6.93;;
31764;SDS011;18338;53.240;8.798;2023-08-08T05:27:51;7.28;;;6.57;;
31764;SDS011;18338;53.240;8.798;2023-08-08T05:30:19;6.45;;;5.63;;
31764;SDS011;18338;53.240;8.798;2023-08-08T05:32:46;6.85;;;5.63;;
31764;SDS011;18338;53.240;8.798;2023-08-08T05:35:13;8.63;;;6.25;;
31764;SDS011;18338;53.240;8.798;2023-08-08T05:37:40;8.35;;;5.88;;
31764;SDS011;18338;53.240;8.798;2023-08-08T05:40:07;7.80;;;6.22;;
31764;SDS011;18338;53.240;8.798;2023-08-08T05:42:34;5.80;;;5.30;;
31764;SDS011;18338;53.240;8.798;2023-08-08T05:45:01;7.60;;;6.13;;
31764;SDS011;18338;53.240;8.798;2023-08-08T05:47:27;7.40;;;5.88;;
31764;SDS011;18338;53.240;8.798;2023-08-08T05:49:54;7.25;;;5.38;;
31764;SDS011;18338;53.240;8.798;2023-08-08T05:52:21;8.90;;;5.95;;
31764;SDS011;18338;53.240;8.798;2023-08-08T05:54:48;6.95;;;5.65;;
31764;SDS011;18338;53.240;8.798;2023-08-08T05:57:15;6.22;;;4.97;;
31764;SDS011;18338;53.240;8.798;2023-08-08T05:59:42;7.57;;;5.22;;
31764;SDS011;18338;53.240;8.798;2023-08-08T06:02:11;7.20;;;4.75;;
31764;SDS011;18338;53.240;8.798;2023-08-08T06:04:37;5.50;;;4.45;;
31764;SDS011;18338;53.240;8.798;2023-08-08T06:07:04;7.40;;;5.05;;
31764;SDS011;18338;53.240;8.798;2023-08-08T06:09:35;6.28;;;4.40;;
31764;SDS011;18338;53.240;8.798;2023-08-08T06:12:03;4.28;;;3.85;;
31764;SDS011;18338;53.240;8.798;2023-08-08T06:14:31;6.82;;;4.25;;
31764;SDS011;18338;53.240;8.798;2023-08-08T06:16:57;6.22;;;4.70;;
31764;SDS011;18338;53.240;8.798;2023-08-08T06:19:24;9.93;;;4.65;;
31764;SDS011;18338;53.240;8.798;2023-08-08T06:21:51;5.97;;;4.40;;
31764;SDS011;18338;53.240;8.798;2023-08-08T06:24:17;6.90;;;4.45;;
31764;SDS011;18338;53.240;8.798;2023-08-08T06:26:44;5.72;;;4.30;;
31764;SDS011;18338;53.240;8.798;2023-08-08T06:29:11;5.72;;;4.35;;
31764;SDS011;18338;53.240;8.798;2023-08-08T06:31:40;7.55;;;4.28;;
31764;SDS011;18338;53.240;8.798;2023-08-08T06:34:08;5.30;;;3.70;;
31764;SDS011;18338;53.240;8.798;2023-08-08T06:36:35;4.82;;;3.78;;
31764;SDS011;18338;53.240;8.798;2023-08-08T06:39:02;7.32;;;3.97;;
31764;SDS011;18338;53.240;8.798;2023-08-08T06:41:29;7.65;;;4.82;;
31764;SDS011;18338;53.240;8.798;2023-08-08T06:43:56;5.82;;;4.10;;
31764;SDS011;18338;53.240;8.798;2023-08-08T06:46:23;6.18;;;4.38;;
31764;SDS011;18338;53.240;8.798;2023-08-08T06:48:51;4.93;;;4.03;;
31764;SDS011;18338;53.240;8.798;2023-08-08T06:51:23;5.85;;;3.60;;
31764;SDS011;18338;53.240;8.798;2023-08-08T06:53:53;7.35;;;3.60;;
31764;SDS011;18338;53.240;8.798;2023-08-08T06:56:19;3.90;;;3.10;;
31764;SDS011;18338;53.240;8.798;2023-08-08T06:58:46;6.35;;;3.35;;
31764;SDS011;18338;53.240;8.798;2023-08-08T07:01:13;7.90;;;2.92;;
31764;SDS011;18338;53.240;8.798;2023-08-08T07:03:40;3.08;;;1.95;;
31764;SDS011;18338;53.240;8.798;2023-08-08T07:06:07;3.08;;;2.10;;
31764;SDS011;18338;53.240;8.798;2023-08-08T07:08:33;5.60;;;1.88;;
31764;SDS011;18338;53.240;8.798;2023-08-08T07:11:00;4.35;;;2.00;;
31764;SDS011;18338;53.240;8.798;2023-08-08T07:13:28;6.43;;;1.85;;
31764;SDS011;18338;53.240;8.798;2023-08-08T07:15:55;5.07;;;1.58;;
31764;SDS011;18338;53.240;8.798;2023-08-08T07:18:22;2.75;;;1.10;;
31764;SDS011;18338;53.240;8.798;2023-08-08T07:20:49;2.78;;;1.48;;
31764;SDS011;18338;53.240;8.798;2023-08-08T07:23:15;2.95;;;1.20;;
31764;SDS011;18338;53.240;8.798;2023-08-08T07:25:43;6.28;;;1.77;;
31764;SDS011;18338;53.240;8.798;2023-08-08T07:28:09;4.97;;;2.03;;
31764;SDS011;18338;53.240;8.798;2023-08-08T07:30:36;4.05;;;1.65;;
31764;SDS011;18338;53.240;8.798;2023-08-08T07:33:03;2.58;;;1.40;;
31764;SDS011;18338;53.240;8.798;2023-08-08T07:35:30;2.92;;;0.93;;
31764;SDS011;18338;53.240;8.798;2023-08-08T07:37:56;2.05;;;1.20;;
31764;SDS011;18338;53.240;8.798;2023-08-08T07:40:23;2.92;;;1.00;;
31764;SDS011;18338;53.240;8.798;2023-08-08T07:42:50;5.10;;;1.60;;
31764;SDS011;18338;53.240;8.798;2023-08-08T07:45:16;3.45;;;1.50;;
31764;SDS011;18338;53.240;8.798;2023-08-08T07:47:44;2.92;;;1.20;;
31764;SDS011;18338;53.240;8.798;2023-08-08T07:50:11;5.72;;;1.70;;
31764;SDS011;18338;53.240;8.798;2023-08-08T07:52:38;4.00;;;1.70;;
31764;SDS011;18338;53.240;8.798;2023-08-08T07:55:07;2.40;;;1.27;;
31764;SDS011;18338;53.240;8.798;2023-08-08T07:57:34;1.75;;;1.27;;
31764;SDS011;18338;53.240;8.798;2023-08-08T08:00:02;3.42;;;1.60;;
31764;SDS011;18338;53.240;8.798;2023-08-08T08:02:42;2.05;;;0.95;;
31764;SDS011;18338;53.240;8.798;2023-08-08T08:05:09;2.00;;;1.50;;
31764;SDS011;18338;53.240;8.798;2023-08-08T08:07:37;2.08;;;0.90;;
31764;SDS011;18338;53.240;8.798;2023-08-08T08:10:05;2.83;;;0.95;;
31764;SDS011;18338;53.240;8.798;2023-08-08T08:12:35;2.38;;;1.02;;
31764;SDS011;18338;53.240;8.798;2023-08-08T08:15:02;1.50;;;0.98;;
31764;SDS011;18338;53.240;8.798;2023-08-08T08:17:30;3.33;;;0.95;;
31764;SDS011;18338;53.240;8.798;2023-08-08T08:19:57;2.55;;;0.80;;
31764;SDS011;18338;53.240;8.798;2023-08-08T08:22:24;2.35;;;0.90;;
31764;SDS011;18338;53.240;8.798;2023-08-08T08:24:51;1.95;;;0.80;;
31764;SDS011;18338;53.240;8.798;2023-08-08T08:27:18;2.53;;;0.90;;
31764;SDS011;18338;53.240;8.798;2023-08-08T08:29:45;2.95;;;0.90;;
31764;SDS011;18338;53.240;8.798;2023-08-08T08:32:12;1.42;;;1.13;;
31764;SDS011;18338;53.240;8.798;2023-08-08T08:34:38;4.10;;;1.17;;
31764;SDS011;18338;53.240;8.798;2023-08-08T08:37:05;3.55;;;1.05;;
31764;SDS011;18338;53.240;8.798;2023-08-08T08:39:33;2.95;;;1.00;;
31764;SDS011;18338;53.240;8.798;2023-08-08T08:42:00;2.65;;;1.08;;
31764;SDS011;18338;53.240;8.798;2023-08-08T08:44:30;3.05;;;1.10;;
31764;SDS011;18338;53.240;8.798;2023-08-08T08:47:01;1.23;;;0.68;;
31764;SDS011;18338;53.240;8.798;2023-08-08T08:49:29;2.63;;;0.90;;
31764;SDS011;18338;53.240;8.798;2023-08-08T08:51:57;2.45;;;0.98;;
31764;SDS011;18338;53.240;8.798;2023-08-08T08:54:28;2.05;;;0.70;;
31764;SDS011;18338;53.240;8.798;2023-08-08T08:56:56;2.80;;;0.90;;
31764;SDS011;18338;53.240;8.798;2023-08-08T08:59:23;2.88;;;0.70;;
31764;SDS011;18338;53.240;8.798;2023-08-08T09:01:51;4.13;;;1.08;;
31764;SDS011;18338;53.240;8.798;2023-08-08T09:04:19;1.88;;;0.73;;
31764;SDS011;18338;53.240;8.798;2023-08-08T09:06:48;2.10;;;1.00;;
31764;SDS011;18338;53.240;8.798;2023-08-08T09:09:16;1.73;;;0.98;;
31764;SDS011;18338;53.240;8.798;2023-08-08T09:11:44;4.57;;;1.00;;
31764;SDS011;18338;53.240;8.798;2023-08-08T09:16:48;1.35;;;0.52;;
31764;SDS011;18338;53.240;8.798;2023-08-08T09:19:15;1.85;;;0.28;;
31764;SDS011;18338;53.240;8.798;2023-08-08T09:21:44;1.40;;;0.30;;
31764;SDS011;18338;53.240;8.798;2023-08-08T09:24:11;2.38;;;0.65;;
31764;SDS011;18338;53.240;8.798;2023-08-08T09:26:39;2.53;;;0.40;;
31764;SDS011;18338;53.240;8.798;2023-08-08T09:29:07;1.20;;;0.45;;
31764;SDS011;18338;53.240;8.798;2023-08-08T09:31:34;1.02;;;0.30;;
31764;SDS011;18338;53.240;8.798;2023-08-08T09:34:02;1.88;;;0.68;;
31764;SDS011;18338;53.240;8.798;2023-08-08T09:36:29;0.93;;;0.63;;
31764;SDS011;18338;53.240;8.798;2023-08-08T09:38:59;1.45;;;0.70;;
31764;SDS011;18338;53.240;8.798;2023-08-08T09:41:26;2.30;;;0.50;;
31764;SDS011;18338;53.240;8.798;2023-08-08T09:43:54;2.25;;;0.60;;
31764;SDS011;18338;53.240;8.798;2023-08-08T09:46:21;1.98;;;0.30;;
31764;SDS011;18338;53.240;8.798;2023-08-08T09:48:49;0.70;;;0.50;;
31764;SDS011;18338;53.240;8.798;2023-08-08T09:51:17;1.05;;;0.40;;
31764;SDS011;18338;53.240;8.798;2023-08-08T09:53:46;1.10;;;0.43;;
31764;SDS011;18338;53.240;8.798;2023-08-08T09:56:14;1.73;;;0.70;;
31764;SDS011;18338;53.240;8.798;2023-08-08T09:58:42;2.70;;;0.85;;
31764;SDS011;18338;53.240;8.798;2023-08-08T10:01:10;4.10;;;0.50;;
31764;SDS011;18338;53.240;8.798;2023-08-08T10:03:39;2.28;;;0.45;;
31764;SDS011;18338;53.240;8.798;2023-08-08T10:06:09;2.25;;;0.52;;
31764;SDS011;18338;53.240;8.798;2023-08-08T10:08:36;1.42;;;0.50;;
31764;SDS011;18338;53.240;8.798;2023-08-08T10:11:04;1.35;;;0.60;;
31764;SDS011;18338;53.240;8.798;2023-08-08T10:13:33;3.47;;;0.60;;
31764;SDS011;18338;53.240;8.798;2023-08-08T10:16:08;1.83;;;0.60;;
31764;SDS011;18338;53.240;8.798;2023-08-08T10:18:35;0.85;;;0.43;;
31764;SDS011;18338;53.240;8.798;2023-08-08T10:21:03;4.32;;;1.35;;
31764;SDS011;18338;53.240;8.798;2023-08-08T10:23:37;1.58;;;0.60;;
31764;SDS011;18338;53.240;8.798;2023-08-08T10:26:05;2.05;;;0.70;;
31764;SDS011;18338;53.240;8.798;2023-08-08T10:28:52;2.88;;;0.70;;
31764;SDS011;18338;53.240;8.798;2023-08-08T10:31:24;1.02;;;0.35;;
31764;SDS011;18338;53.240;8.798;2023-08-08T10:34:05;1.10;;;0.70;;
31764;SDS011;18338;53.240;8.798;2023-08-08T10:36:43;1.75;;;0.77;;
31764;SDS011;18338;53.240;8.798;2023-08-08T10:39:17;1.88;;;0.65;;
31764;SDS011;18338;53.240;8.798;2023-08-08T10:41:46;2.03;;;0.60;;
31764;SDS011;18338;53.240;8.798;2023-08-08T10:44:23;2.25;;;0.75;;
31764;SDS011;18338;53.240;8.798;2023-08-08T10:46:51;4.63;;;0.90;;
31764;SDS011;18338;53.240;8.798;2023-08-08T10:49:19;2.42;;;0.75;;
31764;SDS011;18338;53.240;8.798;2023-08-08T10:51:46;3.22;;;1.02;;
31764;SDS011;18338;53.240;8.798;2023-08-08T10:56:52;0.75;;;0.43;;
31764;SDS011;18338;53.240;8.798;2023-08-08T10:59:28;1.23;;;0.40;;
31764;SDS011;18338;53.240;8.798;2023-08-08T11:02:03;0.82;;;0.30;;
31764;SDS011;18338;53.240;8.798;2023-08-08T11:04:30;1.90;;;0.57;;
31764;SDS011;18338;53.240;8.798;2023-08-08T11:06:59;1.42;;;0.65;;
31764;SDS011;18338;53.240;8.798;2023-08-08T11:09:26;1.15;;;0.50;;
31764;SDS011;18338;53.240;8.798;2023-08-08T11:11:53;1.58;;;0.60;;
31764;SDS011;18338;53.240;8.798;2023-08-08T11:14:20;1.15;;;0.50;;
31764;SDS011;18338;53.240;8.798;2023-08-08T11:16:48;2.35;;;0.60;;
31764;SDS011;18338;53.240;8.798;2023-08-08T11:19:20;1.35;;;0.65;;
31764;SDS011;18338;53.240;8.798;2023-08-08T11:21:51;1.08;;;0.35;;
31764;SDS011;18338;53.240;8.798;2023-08-08T11:24:19;0.55;;;0.40;;
31764;SDS011;18338;53.240;8.798;2023-08-08T11:26:45;1.45;;;0.55;;
31764;SDS011;18338;53.240;8.798;2023-08-08T11:29:14;1.10;;;0.38;;
31764;SDS011;18338;53.240;8.798;2023-08-08T11:31:41;0.93;;;0.40;;
31764;SDS011;18338;53.240;8.798;2023-08-08T11:34:08;1.35;;;0.40;;
31764;SDS011;18338;53.240;8.798;2023-08-08T11:36:36;1.40;;;0.47;;
31764;SDS011;18338;53.240;8.798;2023-08-08T11:39:04;0.70;;;0.50;;
31764;SDS011;18338;53.240;8.798;2023-08-08T11:41:36;1.48;;;0.60;;
31764;SDS011;18338;53.240;8.798;2023-08-08T11:44:04;1.60;;;0.60;;
31764;SDS011;18338;53.240;8.798;2023-08-08T11:46:32;1.10;;;0.50;;
31764;SDS011;18338;53.240;8.798;2023-08-08T11:49:05;1.98;;;0.60;;
31764;SDS011;18338;53.240;8.798;2023-08-08T11:51:33;1.25;;;0.57;;
31764;SDS011;18338;53.240;8.798;2023-08-08T11:54:01;1.42;;;0.65;;
31764;SDS011;18338;53.240;8.798;2023-08-08T11:56:33;1.00;;;0.50;;
31764;SDS011;18338;53.240;8.798;2023-08-08T11:59:00;2.05;;;0.52;;
31764;SDS011;18338;53.240;8.798;2023-08-08T12:01:28;1.60;;;0.60;;
31764;SDS011;18338;53.240;8.798;2023-08-08T12:03:56;2.58;;;0.63;;
31764;SDS011;18338;53.240;8.798;2023-08-08T12:06:27;2.45;;;0.75;;
31764;SDS011;18338;53.240;8.798;2023-08-08T12:08:55;1.58;;;0.55;;
31764;SDS011;18338;53.240;8.798;2023-08-08T12:11:22;3.00;;;0.70;;
31764;SDS011;18338;53.240;8.798;2023-08-08T12:13:57;1.10;;;0.50;;
31764;SDS011;18338;53.240;8.798;2023-08-08T12:16:27;1.10;;;0.40;;
31764;SDS011;18338;53.240;8.798;2023-08-08T12:19:02;1.83;;;0.60;;
31764;SDS011;18338;53.240;8.798;2023-08-08T12:21:32;1.25;;;0.55;;
31764;SDS011;18338;53.240;8.798;2023-08-08T12:23:59;0.77;;;0.50;;
31764;SDS011;18338;53.240;8.798;2023-08-08T12:26:26;2.53;;;0.47;;
31764;SDS011;18338;53.240;8.798;2023-08-08T12:28:53;1.92;;;0.50;;
31764;SDS011;18338;53.240;8.798;2023-08-08T12:31:20;1.38;;;0.60;;
31764;SDS011;18338;53.240;8.798;2023-08-08T12:33:47;2.28;;;0.50;;
31764;SDS011;18338;53.240;8.798;2023-08-08T12:36:15;2.70;;;0.57;;
31764;SDS011;18338;53.240;8.798;2023-08-08T12:38:41;1.42;;;0.40;;
31764;SDS011;18338;53.240;8.798;2023-08-08T12:41:08;1.77;;;0.63;;
31764;SDS011;18338;53.240;8.798;2023-08-08T12:43:37;1.52;;;0.57;;
31764;SDS011;18338;53.240;8.798;2023-08-08T12:46:04;2.42;;;0.55;;
31764;SDS011;18338;53.240;8.798;2023-08-08T12:48:30;2.03;;;0.50;;
31764;SDS011;18338;53.240;8.798;2023-08-08T12:50:57;2.97;;;0.70;;
31764;SDS011;18338;53.240;8.798;2023-08-08T12:53:24;2.72;;;0.63;;
31764;SDS011;18338;53.240;8.798;2023-08-08T12:55:51;1.85;;;0.50;;
31764;SDS011;18338;53.240;8.798;2023-08-08T12:58:18;1.48;;;0.70;;
31764;SDS011;18338;53.240;8.798;2023-08-08T13:00:45;2.90;;;0.60;;
31764;SDS011;18338;53.240;8.798;2023-08-08T13:03:12;2.95;;;0.77;;
31764;SDS011;18338;53.240;8.798;2023-08-08T13:05:39;1.85;;;0.52;;
31764;SDS011;18338;53.240;8.798;2023-08-08T13:08:06;2.83;;;0.77;;
31764;SDS011;18338;53.240;8.798;2023-08-08T13:10:33;2.10;;;0.80;;
31764;SDS011;18338;53.240;8.798;2023-08-08T13:12:59;1.60;;;0.70;;
31764;SDS011;18338;53.240;8.798;2023-08-08T13:15:27;2.72;;;0.80;;
31764;SDS011;18338;53.240;8.798;2023-08-08T13:17:54;2.30;;;0.63;;
31764;SDS011;18338;53.240;8.798;2023-08-08T13:20:34;2.33;;;0.50;;
31764;SDS011;18338;53.240;8.798;2023-08-08T13:23:01;2.28;;;0.80;;
31764;SDS011;18338;53.240;8.798;2023-08-08T13:25:28;1.40;;;0.55;;
31764;SDS011;18338;53.240;8.798;2023-08-08T13:27:54;2.15;;;0.73;;
31764;SDS011;18338;53.240;8.798;2023-08-08T13:30:25;3.38;;;0.60;;
31764;SDS011;18338;53.240;8.798;2023-08-08T13:32:54;1.95;;;0.45;;
31764;SDS011;18338;53.240;8.798;2023-08-08T13:35:21;2.42;;;0.50;;
31764;SDS011;18338;53.240;8.798;2023-08-08T13:37:48;2.20;;;0.68;;
31764;SDS011;18338;53.240;8.798;2023-08-08T13:40:17;0.80;;;0.40;;
31764;SDS011;18338;53.240;8.798;2023-08-08T13:42:44;1.63;;;0.63;;
31764;SDS011;18338;53.240;8.798;2023-08-08T13:45:14;1.80;;;0.60;;
31764;SDS011;18338;53.240;8.798;2023-08-08T13:47:41;1.85;;;0.52;;
31764;SDS011;18338;53.240;8.798;2023-08-08T13:50:08;1.48;;;0.50;;
31764;SDS011;18338;53.240;8.798;2023-08-08T13:52:35;0.90;;;0.40;;
31764;SDS011;18338;53.240;8.798;2023-08-08T13:55:01;2.05;;;0.73;;
31764;SDS011;18338;53.240;8.798;2023-08-08T13:57:28;2.85;;;1.00;;
31764;SDS011;18338;53.240;8.798;2023-08-08T13:59:55;2.40;;;1.05;;
31764;SDS011;18338;53.240;8.798;2023-08-08T14:02:22;1.95;;;0.60;;
31764;SDS011;18338;53.240;8.798;2023-08-08T14:04:48;4.28;;;0.73;;
31764;SDS011;18338;53.240;8.798;2023-08-08T14:07:15;1.10;;;0.50;;
31764;SDS011;18338;53.240;8.798;2023-08-08T14:09:42;2.22;;;0.80;;
31764;SDS011;18338;53.240;8.798;2023-08-08T14:12:09;2.25;;;0.68;;
31764;SDS011;18338;53.240;8.798;2023-08-08T14:14:36;1.52;;;0.57;;
31764;SDS011;18338;53.240;8.798;2023-08-08T14:17:03;2.17;;;0.73;;
31764;SDS011;18338;53.240;8.798;2023-08-08T14:19:30;1.98;;;0.73;;
31764;SDS011;18338;53.240;8.798;2023-08-08T14:21:58;1.52;;;0.70;;
31764;SDS011;18338;53.240;8.798;2023-08-08T14:27:23;1.88;;;0.63;;
31764;SDS011;18338;53.240;8.798;2023-08-08T14:29:50;2.78;;;0.80;;
31764;SDS011;18338;53.240;8.798;2023-08-08T14:32:17;3.42;;;0.70;;
31764;SDS011;18338;53.240;8.798;2023-08-08T14:34:45;2.15;;;0.60;;
31764;SDS011;18338;53.240;8.798;2023-08-08T14:37:12;1.92;;;0.65;;
31764;SDS011;18338;53.240;8.798;2023-08-08T14:39:39;2.60;;;0.60;;
31764;SDS011;18338;53.240;8.798;2023-08-08T14:42:06;4.75;;;1.10;;
31764;SDS011;18338;53.240;8.798;2023-08-08T14:44:33;2.58;;;0.60;;
31764;SDS011;18338;53.240;8.798;2023-08-08T14:47:00;3.63;;;0.80;;
31764;SDS011;18338;53.240;8.798;2023-08-08T14:49:28;3.33;;;0.50;;
31764;SDS011;18338;53.240;8.798;2023-08-08T14:51:55;2.67;;;0.68;;
31764;SDS011;18338;53.240;8.798;2023-08-08T14:54:22;2.45;;;0.55;;
31764;SDS011;18338;53.240;8.798;2023-08-08T14:56:49;1.25;;;0.70;;
31764;SDS011;18338;53.240;8.798;2023-08-08T14:59:17;0.90;;;0.55;;
31764;SDS011;18338;53.240;8.798;2023-08-08T15:01:44;2.33;;;0.80;;